Time;durP1;ratioP1;P1;durP2;ratioP2;P2;SDS_P1;SDS_P2;PMS_P1;PMS_P2;Temp;Humidity;BMP_temperature;BMP_pressure;BME280_temperature;BME280_humidity;BME280_pressure;Samples;Min_cycle;Max_cycle;Signal;HPM_P1;HPM_P2
2021/12/17 00:05:01;;;;;;;112.88;64.70;;;;;;;-1.35;100.00;101579.38;5059340;28;20052;-87
2021/12/17 00:07:41;;;;;;;119.03;65.57;;;;;;;-1.29;100.00;101587.06;5058342;28;20033;-87
2021/12/17 00:10:17;;;;;;;114.03;65.53;;;;;;;-1.23;100.00;101589.56;5091748;28;20029;-86
2021/12/17 00:13:11;;;;;;;120.28;67.88;;;;;;;-1.13;100.00;101584.28;5080322;28;20021;-86
2021/12/17 00:15:47;;;;;;;118.60;67.10;;;;;;;-1.07;100.00;101590.25;5009959;28;20145;-85
2021/12/17 00:18:21;;;;;;;116.60;68.63;;;;;;;-0.99;100.00;101593.59;5024334;28;20049;-86
2021/12/17 00:51:22;;;;;;;105.78;61.95;;;;;;;-0.87;100.00;101597.75;5073542;28;20033;-84
2021/12/17 00:53:38;;;;;;;108.25;60.33;;;;;;;-0.95;100.00;101604.78;5075850;28;20078;-86
2021/12/17 00:56:04;;;;;;;108.05;62.38;;;;;;;-0.95;100.00;101613.41;5074699;28;20021;-87
2021/12/17 00:58:30;;;;;;;108.13;63.20;;;;;;;-0.97;100.00;101611.72;5073428;28;20123;-86
2021/12/17 01:00:55;;;;;;;108.65;61.70;;;;;;;-0.98;100.00;101600.50;5074063;28;20111;-86
2021/12/17 01:03:21;;;;;;;105.85;61.50;;;;;;;-0.98;100.00;101600.50;5073379;28;20044;-88
2021/12/17 01:06:34;;;;;;;100.45;60.72;;;;;;;-1.03;100.00;101601.44;5073233;28;20389;-86
2021/12/17 01:09:00;;;;;;;111.40;61.85;;;;;;;-1.01;100.00;101604.88;5056940;28;20032;-86
2021/12/17 01:11:26;;;;;;;107.65;62.90;;;;;;;-0.99;100.00;101603.09;5072788;28;20123;-84
2021/12/17 01:14:21;;;;;;;109.68;62.40;;;;;;;-1.00;100.00;101601.41;5060162;28;20032;-86
2021/12/17 01:16:56;;;;;;;107.45;61.97;;;;;;;-1.01;100.00;101604.88;5069557;28;20036;-87
2021/12/17 01:25:36;;;;;;;105.30;58.42;;;;;;;-1.06;100.00;101607.50;5073253;28;20052;-87
2021/12/17 01:42:55;;;;;;;101.75;59.55;;;;;;;-1.13;100.00;101599.84;5075542;28;20060;-86
2021/12/17 01:45:26;;;;;;;102.55;59.67;;;;;;;-1.14;100.00;101608.47;5074343;28;20020;-86
2021/12/17 01:47:52;;;;;;;103.63;59.45;;;;;;;-1.18;100.00;101612.00;5067816;28;20051;-87
2021/12/17 01:56:15;;;;;;;105.00;60.85;;;;;;;-1.27;100.00;101603.44;5093880;28;20037;-86
2021/12/17 02:01:19;;;;;;;107.55;60.10;;;;;;;-1.25;100.00;101601.72;5090655;28;20044;-85
2021/12/17 02:03:47;;;;;;;115.97;64.05;;;;;;;-1.19;100.00;101599.91;5088629;28;20043;-87
2021/12/17 02:06:14;;;;;;;110.22;62.08;;;;;;;-1.19;100.00;101597.31;5083421;28;20028;-85
2021/12/17 02:08:39;;;;;;;111.60;63.25;;;;;;;-1.17;100.00;101598.16;5075184;28;20028;-88
2021/12/17 02:11:52;;;;;;;107.60;62.60;;;;;;;-1.16;100.00;101584.31;5074863;28;20047;-85
2021/12/17 02:20:10;;;;;;;104.70;61.10;;;;;;;-1.27;100.00;101572.38;5076721;28;20063;-86
2021/12/17 02:30:56;;;;;;;104.03;59.33;;;;;;;-1.20;100.00;101583.50;5075798;28;20420;-85
2021/12/17 02:33:22;;;;;;;105.70;60.97;;;;;;;-1.17;100.00;101577.41;5073499;28;20059;-87
2021/12/17 02:35:48;;;;;;;101.50;58.95;;;;;;;-1.16;100.00;101574.81;5073618;28;20056;-88
2021/12/17 02:38:16;;;;;;;107.28;61.47;;;;;;;-1.12;100.00;101578.25;5054641;28;20083;-88
2021/12/17 02:46:55;;;;;;;111.25;60.25;;;;;;;-0.96;100.00;101577.16;5060308;28;20130;-87
2021/12/17 02:49:22;;;;;;;105.97;59.55;;;;;;;-0.95;100.00;101584.91;5048374;28;20396;-88
2021/12/17 02:51:49;;;;;;;100.97;61.42;;;;;;;-0.94;100.00;101585.75;5045708;28;20604;-87
2021/12/17 02:54:15;;;;;;;104.65;61.33;;;;;;;-0.96;100.00;101572.84;5071201;28;20067;-87
2021/12/17 02:56:41;;;;;;;108.97;61.85;;;;;;;-0.97;100.00;101572.84;5054755;28;20029;-87
2021/12/17 02:59:10;;;;;;;100.78;59.22;;;;;;;-0.97;100.00;101565.94;5070710;28;20090;-87
2021/12/17 03:01:36;;;;;;;103.88;58.70;;;;;;;-0.98;100.00;101573.72;5054842;28;20037;-86
2021/12/17 03:04:01;;;;;;;105.38;59.15;;;;;;;-1.00;100.00;101576.31;5073134;28;20028;-85
2021/12/17 03:06:28;;;;;;;99.78;57.47;;;;;;;-1.04;100.00;101576.38;5070768;28;20037;-86
2021/12/17 03:08:53;;;;;;;99.55;57.42;;;;;;;-1.04;100.00;101574.66;5072594;28;20487;-86
2021/12/17 03:11:19;;;;;;;101.70;59.15;;;;;;;-1.02;100.00;101572.06;5070991;28;20036;-84
2021/12/17 03:13:46;;;;;;;99.25;57.45;;;;;;;-0.98;100.00;101578.91;5054493;28;20032;-86
2021/12/17 03:16:28;;;;;;;103.53;58.85;;;;;;;-1.00;100.00;101580.69;5054169;28;20097;-85
2021/12/17 03:19:27;;;;;;;97.25;56.55;;;;;;;-1.00;100.00;101591.03;5070872;28;20056;-86
2021/12/17 03:24:36;;;;;;;99.90;56.63;;;;;;;-1.02;100.00;101603.16;5068756;28;20472;-86
2021/12/17 03:27:04;;;;;;;96.15;55.38;;;;;;;-1.07;100.00;101604.94;5071252;28;20035;-85
2021/12/17 03:29:30;;;;;;;102.57;57.38;;;;;;;-1.14;100.00;101603.31;5073034;28;20052;-86
2021/12/17 03:32:02;;;;;;;105.13;59.10;;;;;;;-1.10;100.00;101592.00;5073614;28;20074;-87
2021/12/17 03:34:27;;;;;;;95.30;57.17;;;;;;;-1.07;100.00;101589.41;5068523;28;20067;-87
2021/12/17 03:36:57;;;;;;;94.10;56.03;;;;;;;-1.09;100.00;101576.47;5081542;28;20064;-87
2021/12/17 03:39:30;;;;;;;97.85;58.35;;;;;;;-1.14;100.00;101577.41;5092154;28;20473;-86
2021/12/17 03:41:58;;;;;;;102.25;58.60;;;;;;;-1.14;100.00;101569.63;5082728;28;20020;-87
2021/12/17 03:44:32;;;;;;;96.13;55.97;;;;;;;-1.15;100.00;101571.34;5074485;28;20064;-87
2021/12/17 03:47:01;;;;;;;102.80;56.78;;;;;;;-1.15;100.00;101580.84;5074257;28;20060;-87
2021/12/17 03:49:33;;;;;;;99.30;58.60;;;;;;;-1.17;100.00;101572.25;5056264;28;20040;-86
2021/12/17 03:52:05;;;;;;;100.47;58.33;;;;;;;-1.16;100.00;101568.78;5071830;28;20025;-87
2021/12/17 03:54:36;;;;;;;105.38;58.55;;;;;;;-1.23;100.00;101574.03;5068534;28;20111;-87
2021/12/17 03:57:08;;;;;;;97.25;57.78;;;;;;;-1.32;100.00;101574.16;5055115;28;20043;-87
2021/12/17 03:59:35;;;;;;;105.38;57.90;;;;;;;-1.39;100.00;101562.16;5061431;28;20023;-86
2021/12/17 04:02:01;;;;;;;99.00;58.63;;;;;;;-1.42;100.00;101554.44;5088672;28;20021;-87
2021/12/17 04:04:26;;;;;;;97.88;57.35;;;;;;;-1.41;100.00;101556.13;5074908;28;20492;-86
2021/12/17 04:07:12;;;;;;;98.68;58.70;;;;;;;-1.41;100.00;101558.72;5073876;28;20115;-86
2021/12/17 04:09:55;;;;;;;104.80;59.05;;;;;;;-1.48;100.00;101562.28;5070846;28;20063;-87
2021/12/17 04:12:28;;;;;;;101.55;58.70;;;;;;;-1.51;100.00;101551.94;5057337;28;20032;-87
2021/12/17 04:15:08;;;;;;;109.97;62.08;;;;;;;-1.59;100.00;101553.75;5067227;28;20036;-88
2021/12/17 04:17:41;;;;;;;106.40;61.20;;;;;;;-1.70;100.00;101553.88;5074432;28;20033;-87
2021/12/17 04:20:08;;;;;;;102.82;59.97;;;;;;;-1.69;100.00;101557.34;5057091;28;20029;-87
2021/12/17 04:22:33;;;;;;;110.80;63.40;;;;;;;-1.72;100.00;101541.84;5073450;28;20094;-86
2021/12/17 04:24:59;;;;;;;114.00;64.80;;;;;;;-1.87;100.00;101532.50;5057716;28;20024;-87
2021/12/17 04:27:25;;;;;;;101.93;59.80;;;;;;;-1.96;100.00;101530.03;5070197;28;20032;-86
2021/12/17 04:29:52;;;;;;;101.05;58.53;;;;;;;-1.99;100.00;101531.78;5074007;28;20031;-86
2021/12/17 04:32:19;;;;;;;104.28;58.88;;;;;;;-2.10;100.00;101535.34;5073582;28;20396;-86
2021/12/17 04:34:45;;;;;;;106.40;60.45;;;;;;;-2.15;100.00;101537.13;5073955;28;20036;-86
2021/12/17 04:37:11;;;;;;;103.90;57.35;;;;;;;-2.21;100.00;101537.19;5057212;28;20043;-88
2021/12/17 04:39:49;;;;;;;107.28;61.72;;;;;;;-2.15;100.00;101536.25;5074305;28;20400;-87
2021/12/17 04:42:21;;;;;;;103.93;59.72;;;;;;;-2.07;100.00;101530.16;5059224;28;20036;-86
2021/12/17 04:44:54;;;;;;;103.68;60.17;;;;;;;-2.02;100.00;101517.16;5067925;28;20091;-86
2021/12/17 04:58:18;;;;;;;95.90;55.38;;;;;;;-2.21;100.00;101508.72;5073789;28;20042;-87
2021/12/17 05:00:44;;;;;;;100.78;57.17;;;;;;;-2.31;100.00;101525.22;5057611;28;20452;-86
2021/12/17 05:03:17;;;;;;;97.95;56.00;;;;;;;-2.27;100.00;101544.13;5066475;28;20044;-87
2021/12/17 05:05:45;;;;;;;95.72;55.42;;;;;;;-2.26;100.00;101538.97;5057498;28;20033;-85
2021/12/17 05:08:21;;;;;;;95.28;55.83;;;;;;;-2.24;100.00;101526.84;5057316;28;20072;-84
2021/12/17 05:21:53;;;;;;;98.72;55.92;;;;;;;-2.23;100.00;101532.88;4998118;28;20098;-86
2021/12/17 05:24:19;;;;;;;95.90;56.25;;;;;;;-2.15;100.00;101529.38;4997471;28;20188;-87
2021/12/17 05:26:44;;;;;;;101.68;57.13;;;;;;;-2.08;100.00;101528.44;4997751;28;20518;-86
2021/12/17 05:29:10;;;;;;;102.38;57.17;;;;;;;-2.03;100.00;101514.59;5007016;28;20075;-86
2021/12/17 05:31:40;;;;;;;110.22;61.55;;;;;;;-1.96;100.00;101505.91;4999452;28;20034;-87
2021/12/17 05:34:05;;;;;;;113.63;59.08;;;;;;;-1.90;100.00;101505.84;4998686;28;20053;-87
2021/12/17 05:36:45;;;;;;;111.43;61.03;;;;;;;-1.87;100.00;101505.78;4999442;28;20049;-87
2021/12/17 05:39:18;;;;;;;107.75;59.95;;;;;;;-1.87;100.00;101506.63;5013149;28;20042;-84
2021/12/17 05:41:45;;;;;;;102.10;60.17;;;;;;;-1.89;100.00;101499.78;4999515;28;20056;-83
2021/12/17 05:44:31;;;;;;;113.45;61.53;;;;;;;-1.89;100.00;101499.78;4997811;28;20072;-84
2021/12/17 05:46:57;;;;;;;104.50;59.53;;;;;;;-1.91;100.00;101504.13;5011335;28;20038;-84
2021/12/17 05:49:26;;;;;;;112.15;60.72;;;;;;;-1.91;100.00;101493.75;4995714;28;20046;-83
2021/12/17 05:51:54;;;;;;;108.75;59.80;;;;;;;-1.91;100.00;101499.78;5003597;28;20062;-83
2021/12/17 05:54:21;;;;;;;110.53;60.03;;;;;;;-1.93;100.00;101505.84;4986556;28;20073;-83
2021/12/17 05:56:47;;;;;;;102.72;59.20;;;;;;;-1.96;100.00;101500.72;5066407;28;20520;-86
2021/12/17 05:59:14;;;;;;;112.57;63.05;;;;;;;-2.00;100.00;101491.28;5055901;28;20036;-87
2021/12/17 06:01:40;;;;;;;104.28;61.08;;;;;;;-2.10;100.00;101488.78;5056225;28;20043;-83
2021/12/17 06:04:07;;;;;;;106.05;61.83;;;;;;;-2.15;100.00;101498.31;5072699;28;20037;-83
2021/12/17 06:06:47;;;;;;;106.18;59.55;;;;;;;-2.23;100.00;101491.50;5064977;28;20116;-85
2021/12/17 06:09:13;;;;;;;107.88;57.42;;;;;;;-2.27;100.00;101506.22;5081361;28;20043;-80
2021/12/17 06:11:39;;;;;;;106.72;58.70;;;;;;;-2.26;100.00;101523.44;5084328;28;20062;-81
2021/12/17 06:14:06;;;;;;;107.32;56.75;;;;;;;-2.35;100.00;101518.34;5090607;28;20083;-80
2021/12/17 06:16:36;;;;;;;102.68;56.03;;;;;;;-2.39;100.00;101497.72;4381005;28;10000732;-78
2021/12/17 06:19:07;;;;;;;105.50;57.67;;;;;;;-2.42;100.00;101490.84;5085105;28;20029;-80
2021/12/17 06:21:32;;;;;;;100.45;55.88;;;;;;;-2.39;100.00;101493.41;5086033;28;20532;-80
2021/12/17 06:23:58;;;;;;;100.05;58.35;;;;;;;-2.42;100.00;101506.38;5062572;28;20084;-81
2021/12/17 06:26:24;;;;;;;106.80;57.88;;;;;;;-2.47;100.00;101503.78;5053932;28;20033;-82
2021/12/17 06:28:52;;;;;;;104.30;58.97;;;;;;;-2.60;100.00;101501.34;5054247;28;20040;-82
2021/12/17 06:31:20;;;;;;;108.35;58.72;;;;;;;-2.64;100.00;101494.47;5057105;28;20032;-81
2021/12/17 06:33:46;;;;;;;109.25;60.40;;;;;;;-2.55;100.00;101504.75;4708260;28;10000170;-82
2021/12/17 06:36:12;;;;;;;99.47;56.97;;;;;;;-2.55;100.00;101522.84;5060747;28;20377;-81
2021/12/17 06:38:38;;;;;;;106.53;57.63;;;;;;;-2.55;100.00;101520.25;5061176;28;20473;-81
2021/12/17 06:41:04;;;;;;;113.65;61.47;;;;;;;-2.54;100.00;101507.34;5066993;28;20047;-82
2021/12/17 06:43:37;;;;;;;109.68;58.78;;;;;;;-2.55;100.00;101512.50;5071917;28;20024;-84
2021/12/17 06:46:19;;;;;;;107.07;60.08;;;;;;;-2.52;100.00;101515.91;5070839;28;20123;-84
2021/12/17 06:48:48;;;;;;;101.18;58.97;;;;;;;-2.49;100.00;101509.88;5073378;28;20046;-84
2021/12/17 07:07:05;;;;;;;103.80;58.13;;;;;;;-2.09;100.00;101449.13;5041906;28;20141;-80
2021/12/17 07:18:01;;;;;;;110.75;61.42;;;;;;;-2.16;100.00;101431.94;5068445;28;20048;-81
2021/12/17 07:23:25;;;;;;;102.65;55.97;;;;;;;-2.18;100.00;101436.28;5068535;28;20072;-81
2021/12/17 07:33:59;;;;;;;100.75;56.88;;;;;;;-2.37;100.00;101427.03;5069733;28;20064;-80
2021/12/17 07:36:45;;;;;;;94.32;55.33;;;;;;;-2.39;100.00;101428.75;5067410;28;20028;-79
2021/12/17 07:39:14;;;;;;;103.05;57.78;;;;;;;-2.40;100.00;101427.03;5068968;28;20392;-80
2021/12/17 07:41:55;;;;;;;104.55;58.42;;;;;;;-2.35;100.00;101425.25;5069119;28;20063;-81
2021/12/17 07:44:32;;;;;;;104.85;56.63;;;;;;;-2.27;100.00;101428.63;5066942;28;20049;-81
2021/12/17 07:47:16;;;;;;;98.93;55.38;;;;;;;-2.17;100.00;101430.22;5073331;28;20105;-80
2021/12/17 07:49:48;;;;;;;105.68;56.92;;;;;;;-2.09;100.00;101428.44;5073433;28;20396;-81
2021/12/17 07:52:13;;;;;;;100.72;55.45;;;;;;;-1.98;100.00;101419.69;5074162;28;20033;-80
2021/12/17 07:54:39;;;;;;;102.18;56.45;;;;;;;-1.93;100.00;101420.47;5074711;28;20029;-79
2021/12/17 07:57:05;;;;;;;99.72;55.85;;;;;;;-1.89;100.00;101427.34;5082820;28;20031;-80
2021/12/17 07:59:33;;;;;;;109.32;58.65;;;;;;;-1.83;100.00;101435.03;5091557;28;20036;-80
2021/12/17 08:01:59;;;;;;;104.20;57.50;;;;;;;-1.78;100.00;101431.50;5088171;28;20400;-80
2021/12/17 08:04:29;;;;;;;104.18;58.15;;;;;;;-1.71;100.00;101424.53;5071367;28;20429;-80
2021/12/17 08:07:00;;;;;;;99.95;56.75;;;;;;;-1.62;100.00;101429.56;5079397;28;20043;-80
2021/12/17 08:09:30;;;;;;;97.80;56.45;;;;;;;-1.59;100.00;101413.97;5062547;28;20021;-80
2021/12/17 08:11:57;;;;;;;99.50;55.45;;;;;;;-1.51;100.00;101417.31;5072655;28;20043;-76
2021/12/17 08:14:30;;;;;;;106.75;56.80;;;;;;;-1.41;100.00;101418.88;5063723;28;20025;-76
2021/12/17 08:30:25;;;;;;;100.07;58.78;;;;;;;-1.09;100.00;101378.69;5029513;28;20469;-80
2021/12/17 08:32:53;;;;;;;104.57;57.58;;;;;;;-1.06;100.00;101384.66;5072803;28;20083;-78
2021/12/17 08:35:20;;;;;;;106.88;60.20;;;;;;;-1.03;100.00;101383.78;5071604;28;20066;-79
2021/12/17 08:37:47;;;;;;;100.70;59.13;;;;;;;-1.01;100.00;101382.03;5070262;28;20021;-79
2021/12/17 08:40:14;;;;;;;102.78;58.55;;;;;;;-0.94;100.00;101375.84;5067739;28;20040;-79
2021/12/17 08:42:46;;;;;;;105.53;61.45;;;;;;;-0.86;100.00;101368.78;5063318;28;20044;-79
2021/12/17 08:45:12;;;;;;;107.65;61.25;;;;;;;-0.82;100.00;101363.53;5059677;28;20043;-79
2021/12/17 08:47:44;;;;;;;105.63;61.35;;;;;;;-0.75;100.00;101378.97;5062942;28;20048;-79
2021/12/17 08:50:12;;;;;;;100.75;60.85;;;;;;;-0.70;100.00;101378.00;5061633;28;20485;-79
2021/12/17 08:52:40;;;;;;;100.60;59.30;;;;;;;-0.68;100.00;101365.88;5062668;28;20128;-79
2021/12/17 08:55:07;;;;;;;101.13;59.83;;;;;;;-0.62;100.00;101381.31;5059914;28;20083;-78
2021/12/17 08:57:33;;;;;;;105.03;59.97;;;;;;;-0.57;100.00;101376.91;5063740;28;20033;-79
2021/12/17 09:00:04;;;;;;;104.07;60.35;;;;;;;-0.53;100.00;101386.31;5059375;28;20033;-78
2021/12/17 09:03:06;;;;;;;101.05;61.35;;;;;;;-0.49;100.00;101387.13;5058402;28;20048;-78
2021/12/17 09:05:40;;;;;;;103.38;62.53;;;;;;;-0.45;100.00;101394.81;5072660;28;20036;-79
2021/12/17 09:08:08;;;;;;;107.32;61.08;;;;;;;-0.35;100.00;101385.13;5070100;28;20460;-79
2021/12/17 09:10:47;;;;;;;103.63;61.63;;;;;;;-0.28;100.00;101380.66;5055299;28;20127;-78
2021/12/17 09:13:14;;;;;;;114.18;65.15;;;;;;;-0.21;100.00;101384.84;5070353;28;20036;-78
2021/12/17 09:15:42;;;;;;;102.57;61.83;;;;;;;-0.16;100.00;101390.81;5070914;28;20032;-83
2021/12/17 09:18:16;;;;;;;101.72;60.67;;;;;;;-0.09;100.00;101397.59;5071335;28;20039;-81
2021/12/17 09:20:54;;;;;;;102.20;60.25;;;;;;;-0.03;100.00;101398.31;5071916;28;20051;-79
2021/12/17 09:23:28;;;;;;;105.03;62.53;;;;;;;0.02;100.00;101395.63;5067176;28;20032;-79
2021/12/17 09:25:54;;;;;;;108.13;60.50;;;;;;;0.09;100.00;101401.56;5070644;28;20381;-79
2021/12/17 09:28:22;;;;;;;105.32;61.55;;;;;;;0.13;100.00;101413.56;5070395;28;20489;-78
2021/12/17 09:30:58;;;;;;;107.88;60.53;;;;;;;0.15;100.00;101417.00;5068891;28;20493;-78
2021/12/17 09:33:25;;;;;;;103.63;62.75;;;;;;;0.19;100.00;101414.31;5071756;28;20048;-78
2021/12/17 09:35:51;;;;;;;109.10;61.45;;;;;;;0.22;100.00;101424.63;5070610;28;20064;-79
2021/12/17 09:38:17;;;;;;;104.15;61.15;;;;;;;0.29;100.00;101428.81;5070952;28;20028;-80
2021/12/17 09:40:43;;;;;;;103.13;60.35;;;;;;;0.33;100.00;101427.84;5066374;28;20665;-79
2021/12/17 09:43:10;;;;;;;100.82;60.13;;;;;;;0.35;100.00;101418.28;5071117;28;20073;-79
2021/12/17 09:45:38;;;;;;;104.20;58.40;;;;;;;0.36;100.00;101404.41;5070277;28;20029;-80
2021/12/17 09:48:04;;;;;;;105.47;61.85;;;;;;;0.41;100.00;101393.94;5070529;28;20043;-78
2021/12/17 09:50:39;;;;;;;105.05;61.40;;;;;;;0.46;100.00;101393.81;5073850;28;20467;-78
2021/12/17 09:53:04;;;;;;;105.50;62.65;;;;;;;0.52;100.00;101389.34;5069983;28;20044;-78
2021/12/17 09:55:30;;;;;;;105.45;62.47;;;;;;;0.62;100.00;101395.19;4957416;28;21500;-78
2021/12/17 09:57:55;;;;;;;102.40;60.45;;;;;;;0.70;100.00;101390.66;5036481;28;20039;-77
2021/12/17 10:00:24;;;;;;;106.72;62.33;;;;;;;0.77;100.00;101377.47;5030646;28;20021;-79
2021/12/17 10:02:51;;;;;;;106.18;62.78;;;;;;;0.85;100.00;101374.69;5031847;28;20041;-79
2021/12/17 10:05:27;;;;;;;111.53;62.03;;;;;;;0.93;100.00;101361.53;5030578;28;20041;-78
2021/12/17 10:07:55;;;;;;;107.05;60.47;;;;;;;1.01;100.00;101363.03;5024916;28;20931;-79
2021/12/17 10:10:20;;;;;;;105.95;61.25;;;;;;;1.11;100.00;101364.53;5008659;28;20468;-80
2021/12/17 10:12:47;;;;;;;111.55;63.17;;;;;;;1.21;100.00;101363.38;5024775;28;20051;-79
2021/12/17 10:15:17;;;;;;;110.65;62.38;;;;;;;1.33;100.00;101361.34;5020428;28;20041;-78
2021/12/17 10:18:03;;;;;;;104.50;63.47;;;;;;;1.45;100.00;101361.03;5021881;28;20036;-77
2021/12/17 10:20:34;;;;;;;106.18;59.83;;;;;;;1.56;100.00;101361.59;5028655;28;20063;-80
2021/12/17 10:23:07;;;;;;;109.88;62.10;;;;;;;1.64;100.00;101354.44;5029219;28;20044;-78
2021/12/17 10:25:40;;;;;;;107.47;61.67;;;;;;;1.71;100.00;101347.31;5029872;28;20072;-81
2021/12/17 10:28:06;;;;;;;113.43;61.38;;;;;;;1.79;100.00;101340.97;5035023;28;20084;-79
2021/12/17 10:30:34;;;;;;;102.28;61.25;;;;;;;1.86;100.00;101324.28;5037040;28;20049;-81
2021/12/17 10:33:03;;;;;;;102.32;60.28;;;;;;;1.92;100.00;101311.09;5032528;28;20052;-81
2021/12/17 10:35:31;;;;;;;113.03;64.22;;;;;;;2.01;100.00;101300.38;5022528;28;20080;-81
2021/12/17 10:38:04;;;;;;;108.10;62.78;;;;;;;2.11;100.00;101300.97;5020869;28;20037;-82
2021/12/17 10:40:36;;;;;;;106.10;60.78;;;;;;;2.18;100.00;101307.69;5016336;28;20729;-79
2021/12/17 10:43:13;;;;;;;104.97;62.78;;;;;;;2.25;100.00;101316.16;5027617;28;20762;-80
2021/12/17 10:45:43;;;;;;;105.85;62.70;;;;;;;2.33;100.00;101319.38;5020044;28;20137;-79
2021/12/17 10:48:26;;;;;;;108.00;62.20;;;;;;;2.39;100.00;101319.19;5020814;28;20033;-79
2021/12/17 10:51:00;;;;;;;112.10;62.63;;;;;;;2.46;100.00;101329.38;5031043;28;20444;-81
2021/12/17 10:53:25;;;;;;;98.65;61.38;;;;;;;2.54;100.00;101334.34;5015273;28;20026;-81
2021/12/17 10:55:53;;;;;;;108.15;62.58;;;;;;;2.57;100.00;101325.59;5025016;28;20064;-80
2021/12/17 10:58:19;;;;;;;108.97;65.28;;;;;;;2.61;100.00;101317.59;5021290;28;20045;-80
2021/12/17 11:01:06;;;;;;;103.88;63.47;;;;;;;2.67;100.00;101317.41;5022107;28;20060;-80
2021/12/17 11:03:41;;;;;;;108.85;62.38;;;;;;;2.74;100.00;101324.13;5021424;28;20064;-82
2021/12/17 11:06:08;;;;;;;109.68;62.70;;;;;;;2.81;100.00;101315.22;5019054;28;20048;-81
2021/12/17 11:08:37;;;;;;;109.10;64.25;;;;;;;2.86;100.00;101313.31;5019216;28;20063;-82
2021/12/17 11:11:11;;;;;;;110.20;64.32;;;;;;;2.95;100.00;101306.06;5028041;28;20482;-82
2021/12/17 11:13:52;;;;;;;107.95;61.78;;;;;;;3.02;100.00;101312.78;5032409;28;20107;-83
2021/12/17 11:16:19;;;;;;;101.47;60.90;;;;;;;3.10;100.00;101310.75;5031241;28;20087;-81
2021/12/17 11:18:46;;;;;;;106.20;62.80;;;;;;;3.17;100.00;101307.91;5029580;28;20045;-82
2021/12/17 11:21:13;;;;;;;100.05;61.63;;;;;;;3.26;100.00;101296.28;5035121;28;20037;-81
2021/12/17 11:23:38;;;;;;;102.93;60.08;;;;;;;3.33;100.00;101292.53;5034879;28;20033;-82
2021/12/17 11:26:04;;;;;;;103.55;61.42;;;;;;;3.41;100.00;101285.31;5035557;28;20038;-81
2021/12/17 11:28:30;;;;;;;104.43;61.03;;;;;;;3.52;100.00;101283.16;5035229;28;20033;-80
2021/12/17 11:30:56;;;;;;;100.85;58.55;;;;;;;3.66;100.00;101275.66;5031530;28;20026;-80
2021/12/17 11:33:21;;;;;;;103.63;59.78;;;;;;;3.86;100.00;101253.16;5033448;28;20727;-80
2021/12/17 11:35:49;;;;;;;103.55;61.13;;;;;;;4.16;100.00;101248.50;5035599;28;20032;-81
2021/12/17 11:38:39;;;;;;;107.40;63.35;;;;;;;4.38;100.00;101249.31;5033712;28;20082;-83
2021/12/17 11:41:16;;;;;;;99.13;59.10;;;;;;;4.49;100.00;101240.13;5033555;28;20048;-81
2021/12/17 11:43:59;;;;;;;101.88;60.25;;;;;;;4.65;100.00;101231.66;5034752;28;20033;-82
2021/12/17 11:46:31;;;;;;;102.43;61.05;;;;;;;4.78;100.00;101227.59;5034659;28;20373;-81
2021/12/17 11:49:07;;;;;;;100.68;61.75;;;;;;;4.93;100.00;101229.56;5034944;28;20036;-81
2021/12/17 11:51:34;;;;;;;104.78;61.08;;;;;;;5.07;100.00;101229.81;5032344;28;20057;-81
2021/12/17 11:54:05;;;;;;;100.13;62.38;;;;;;;5.21;100.00;101232.66;5034578;28;20061;-81
2021/12/17 11:56:41;;;;;;;99.82;58.90;;;;;;;5.35;100.00;101214.59;5035302;28;20523;-81
2021/12/17 11:59:32;;;;;;;97.45;60.05;;;;;;;5.53;100.00;101219.91;5035125;28;20040;-81
2021/12/17 12:02:14;;;;;;;97.13;58.35;;;;;;;5.67;100.00;101209.63;5031464;28;20116;-81
2021/12/17 12:04:53;;;;;;;96.00;58.53;;;;;;;5.80;100.00;101210.75;5034676;28;20034;-81
2021/12/17 12:07:34;;;;;;;98.18;58.28;;;;;;;5.90;100.00;101206.81;5036415;28;20047;-82
2021/12/17 12:10:09;;;;;;;94.80;59.08;;;;;;;6.03;100.00;101196.59;5040287;28;20089;-81
2021/12/17 12:12:34;;;;;;;104.03;59.63;;;;;;;6.14;100.00;101187.28;5054906;28;20025;-81
2021/12/17 12:15:19;;;;;;;96.07;59.22;;;;;;;6.33;100.00;101194.25;5045236;28;20033;-81
2021/12/17 12:17:57;;;;;;;92.72;58.03;;;;;;;6.47;100.00;101186.56;5040637;28;20025;-82
2021/12/17 12:20:44;;;;;;;97.05;57.47;;;;;;;6.61;100.00;101177.97;5037810;28;20037;-81
2021/12/17 12:23:28;;;;;;;94.22;58.10;;;;;;;6.72;100.00;101181.75;5034467;28;20041;-82
2021/12/17 12:26:07;;;;;;;91.75;55.90;;;;;;;6.85;100.00;101174.94;5034558;28;20391;-81
2021/12/17 12:28:45;;;;;;;93.45;57.30;;;;;;;6.98;100.00;101172.53;5033249;28;20049;-81
2021/12/17 12:31:20;;;;;;;88.43;54.78;;;;;;;7.12;100.00;101180.53;5032877;28;20041;-82
2021/12/17 12:34:04;;;;;;;85.93;56.03;;;;;;;7.26;100.00;101174.53;5033897;28;20060;-82
2021/12/17 12:37:00;;;;;;;87.88;54.85;;;;;;;7.40;100.00;101169.38;5033800;28;20029;-81
2021/12/17 12:39:25;;;;;;;88.55;54.05;;;;;;;7.53;100.00;101173.03;5029075;28;20045;-81
2021/12/17 12:42:11;;;;;;;92.03;53.80;;;;;;;7.64;100.00;101172.44;5033797;28;20029;-80
2021/12/17 12:44:39;;;;;;;85.20;52.00;;;;;;;7.71;100.00;101164.16;5033275;28;20033;-80
2021/12/17 12:47:07;;;;;;;86.20;53.40;;;;;;;7.80;100.00;101154.88;5033265;28;20365;-81
2021/12/17 12:49:49;;;;;;;86.53;52.95;;;;;;;7.92;99.60;101150.72;5033359;28;20048;-79
2021/12/17 12:52:29;;;;;;;88.85;52.10;;;;;;;7.98;96.51;101151.22;5033267;28;20048;-81
2021/12/17 12:54:58;;;;;;;85.90;50.25;;;;;;;8.06;97.04;101145.53;5032635;28;20029;-80
2021/12/17 12:57:28;;;;;;;86.38;50.83;;;;;;;8.14;96.30;101130.16;5033510;28;20381;-80
2021/12/17 12:59:56;;;;;;;83.78;51.72;;;;;;;8.16;96.12;101130.91;5033481;28;20034;-80
2021/12/17 13:02:26;;;;;;;87.95;53.15;;;;;;;8.25;96.42;101127.72;5043284;28;20033;-82
2021/12/17 13:04:57;;;;;;;95.13;56.93;;;;;;;8.34;95.98;101132.50;5041784;28;20095;-81
2021/12/17 13:07:37;;;;;;;86.88;55.75;;;;;;;8.43;96.17;101126.69;5033606;28;20048;-81
2021/12/17 13:10:06;;;;;;;94.10;56.70;;;;;;;8.49;95.16;101131.59;5031959;28;20030;-80
2021/12/17 13:12:35;;;;;;;91.30;58.50;;;;;;;8.58;95.21;101119.69;5033540;28;20083;-80
2021/12/17 13:15:39;;;;;;;94.32;56.60;;;;;;;8.61;93.23;101120.31;5011382;28;20296;-79
2021/12/17 13:20:59;;;;;;;93.63;56.72;;;;;;;8.66;92.05;101106.06;5033148;28;20029;-81
2021/12/17 13:23:25;;;;;;;90.07;55.17;;;;;;;8.72;92.40;101109.16;5032775;28;20037;-82
2021/12/17 13:26:09;;;;;;;90.10;57.03;;;;;;;8.73;92.21;101107.38;5032388;28;20029;-83
2021/12/17 13:28:59;;;;;;;89.68;55.55;;;;;;;8.73;92.11;101102.09;5035129;28;20037;-83
2021/12/17 13:31:44;;;;;;;88.07;55.78;;;;;;;8.72;92.55;101106.50;5032868;28;20410;-81
2021/12/17 13:34:25;;;;;;;83.63;54.67;;;;;;;8.70;91.53;101103.16;5032198;28;20037;-82
2021/12/17 13:37:04;;;;;;;88.07;54.85;;;;;;;8.69;91.58;101105.88;5019101;28;20425;-78
2021/12/17 13:39:32;;;;;;;85.40;54.83;;;;;;;8.72;91.56;101092.53;5030441;28;20116;-81
2021/12/17 13:41:58;;;;;;;85.72;54.67;;;;;;;8.74;91.57;101098.53;5019918;28;20104;-79
2021/12/17 13:44:40;;;;;;;86.60;54.08;;;;;;;8.73;90.45;101086.31;5021412;28;20037;-79
2021/12/17 13:47:12;;;;;;;88.60;53.60;;;;;;;8.72;90.89;101085.47;5029068;28;20034;-79
2021/12/17 13:49:42;;;;;;;86.05;53.40;;;;;;;8.67;91.49;101091.94;5031453;28;20109;-81
2021/12/17 13:52:09;;;;;;;90.55;57.10;;;;;;;8.62;91.71;101074.66;5028972;28;20033;-80
2021/12/17 13:54:36;;;;;;;86.63;54.13;;;;;;;8.51;91.47;101071.84;5032193;28;20497;-81
2021/12/17 13:57:04;;;;;;;87.25;54.55;;;;;;;8.40;92.29;101070.78;5031904;28;20079;-81
2021/12/17 13:59:33;;;;;;;88.13;54.83;;;;;;;8.29;92.40;101066.16;5032942;28;20049;-82